Time;durP1;ratioP1;P1;durP2;ratioP2;P2;SDS_P1;SDS_P2;PMS_P1;PMS_P2;Temp;Humidity;BMP_temperature;BMP_pressure;BME280_temperature;BME280_humidity;BME280_pressure;Samples;Min_cycle;Max_cycle;Signal;HPM_P1;HPM_P2
2023/06/09 00:01:16;;;;;;;14.38;12.43;;;17.80;99.90;;;;;;5032587;28;20036;-67
2023/06/09 00:03:42;;;;;;;16.42;12.50;;;17.70;99.90;;;;;;5032454;28;20156;-67
2023/06/09 00:06:09;;;;;;;16.10;12.95;;;17.70;99.90;;;;;;5032728;28;20021;-67
2023/06/09 00:08:36;;;;;;;19.08;13.48;;;17.60;99.90;;;;;;5036375;28;20431;-67
2023/06/09 00:11:01;;;;;;;15.65;11.90;;;17.50;1.00;;;;;;5036148;28;20030;-67
2023/06/09 00:13:27;;;;;;;19.85;13.98;;;17.40;1.00;;;;;;5035947;28;20025;-67
2023/06/09 00:15:53;;;;;;;15.48;12.85;;;17.40;1.00;;;;;;5036199;28;20478;-67
2023/06/09 00:18:18;;;;;;;15.23;13.20;;;17.40;1.00;;;;;;5036293;28;20468;-67
2023/06/09 00:20:44;;;;;;;15.38;12.63;;;17.40;1.00;;;;;;5036000;28;20037;-67
2023/06/09 00:23:09;;;;;;;19.92;14.07;;;17.30;1.00;;;;;;5036266;28;20034;-67
2023/06/09 00:25:36;;;;;;;17.25;13.18;;;17.40;1.00;;;;;;5036020;28;20105;-67
2023/06/09 00:28:01;;;;;;;18.42;13.25;;;17.30;1.00;;;;;;5035846;28;20030;-67
2023/06/09 00:30:27;;;;;;;15.68;13.27;;;17.20;1.00;;;;;;5036026;28;20467;-67
2023/06/09 00:32:53;;;;;;;17.73;13.45;;;17.20;1.00;;;;;;5035735;28;20494;-67
2023/06/09 00:35:18;;;;;;;17.83;13.80;;;17.10;1.00;;;;;;5035744;28;20034;-67
2023/06/09 00:37:46;;;;;;;17.20;14.10;;;17.10;1.00;;;;;;5035739;28;20032;-67
2023/06/09 00:40:13;;;;;;;16.77;13.85;;;17.10;1.00;;;;;;5035582;28;20060;-66
2023/06/09 00:42:38;;;;;;;15.63;13.57;;;17.00;1.00;;;;;;5035754;28;20122;-67
2023/06/09 00:45:04;;;;;;;18.40;14.13;;;17.00;1.00;;;;;;5035430;28;20029;-67
2023/06/09 00:47:30;;;;;;;22.23;14.23;;;16.90;1.00;;;;;;5035500;28;20399;-67
2023/06/09 00:49:56;;;;;;;18.73;14.13;;;16.80;1.00;;;;;;5035478;28;20025;-67
2023/06/09 00:52:22;;;;;;;16.45;14.05;;;16.70;1.00;;;;;;5035369;28;20029;-67
2023/06/09 00:54:48;;;;;;;16.33;13.73;;;16.80;1.00;;;;;;5035442;28;20037;-67
2023/06/09 00:57:14;;;;;;;18.60;14.93;;;16.70;1.00;;;;;;5035321;28;20025;-66
2023/06/09 00:59:40;;;;;;;18.05;13.50;;;16.60;1.00;;;;;;5035092;28;20049;-67
2023/06/09 01:02:07;;;;;;;21.23;15.57;;;16.60;1.00;;;;;;5035210;28;20388;-66
2023/06/09 01:04:34;;;;;;;18.48;14.82;;;16.60;1.00;;;;;;5035354;28;20026;-67
2023/06/09 01:07:12;;;;;;;21.67;15.05;;;16.60;1.00;;;;;;5035126;28;20029;-67
2023/06/09 01:09:54;;;;;;;18.08;14.88;;;16.60;1.00;;;;;;5033911;28;20502;-66
2023/06/09 01:12:40;;;;;;;16.83;14.60;;;16.60;1.00;;;;;;5034807;28;20025;-67
2023/06/09 01:15:14;;;;;;;18.65;14.48;;;16.70;1.00;;;;;;5034965;28;20079;-67
2023/06/09 01:17:42;;;;;;;18.17;14.88;;;16.70;1.00;;;;;;5033923;28;20021;-67
2023/06/09 01:20:09;;;;;;;20.65;15.02;;;16.80;1.00;;;;;;5034607;28;20495;-67
2023/06/09 01:23:00;;;;;;;15.60;13.68;;;16.70;1.00;;;;;;5035083;28;20032;-66
2023/06/09 01:25:39;;;;;;;17.70;14.77;;;16.60;1.00;;;;;;5034741;28;20022;-67
2023/06/09 01:28:08;;;;;;;19.52;15.13;;;16.50;1.00;;;;;;5034778;28;20021;-67
2023/06/09 01:30:36;;;;;;;17.67;14.85;;;16.50;1.00;;;;;;5034664;28;20033;-67
2023/06/09 01:33:05;;;;;;;17.80;15.70;;;16.40;1.00;;;;;;5034664;28;20077;-67
2023/06/09 01:35:31;;;;;;;19.60;15.70;;;16.60;1.00;;;;;;5034736;28;20037;-66
2023/06/09 01:37:58;;;;;;;24.70;16.15;;;16.60;1.00;;;;;;5034544;28;20029;-68
2023/06/09 01:40:24;;;;;;;20.15;16.80;;;16.60;1.00;;;;;;5034417;28;20475;-67
2023/06/09 01:42:49;;;;;;;20.90;17.52;;;16.60;1.00;;;;;;5034556;28;20507;-67
2023/06/09 01:45:15;;;;;;;22.50;17.52;;;16.60;1.00;;;;;;5034347;28;20045;-67
2023/06/09 01:47:41;;;;;;;18.92;16.45;;;16.60;1.00;;;;;;5034707;28;20034;-67
2023/06/09 01:50:22;;;;;;;19.92;16.48;;;16.60;1.00;;;;;;5034116;28;20079;-67
2023/06/09 01:53:01;;;;;;;19.70;17.10;;;16.50;1.00;;;;;;5034345;28;20064;-67
2023/06/09 01:55:33;;;;;;;19.98;15.80;;;16.50;1.00;;;;;;5034411;28;20071;-67
2023/06/09 01:58:05;;;;;;;20.25;16.00;;;16.40;1.00;;;;;;5034172;28;20450;-67
2023/06/09 02:00:31;;;;;;;18.40;16.10;;;16.30;1.00;;;;;;5033967;28;20104;-67
2023/06/09 02:03:00;;;;;;;18.52;14.80;;;16.40;6.30;;;;;;5034070;28;20022;-67
2023/06/09 02:05:28;;;;;;;23.58;15.35;;;16.20;1.60;;;;;;5033710;28;20060;-67
2023/06/09 02:07:55;;;;;;;18.58;15.48;;;16.20;3.60;;;;;;5016621;28;20383;-67
2023/06/09 02:10:21;;;;;;;18.70;14.45;;;16.20;10.80;;;;;;5034101;28;20033;-67
2023/06/09 02:12:47;;;;;;;17.70;14.32;;;16.00;14.40;;;;;;5033969;28;20025;-66
2023/06/09 02:15:13;;;;;;;21.67;16.65;;;16.00;20.60;;;;;;5034170;28;20506;-66
2023/06/09 02:17:39;;;;;;;21.80;16.65;;;15.90;28.70;;;;;;5034004;28;20442;-67
2023/06/09 02:20:08;;;;;;;19.13;16.48;;;15.80;40.30;;;;;;5033926;28;20561;-66
2023/06/09 02:22:34;;;;;;;18.98;16.92;;;15.70;51.50;;;;;;5033753;28;20495;-66
2023/06/09 02:25:00;;;;;;;23.30;17.63;;;15.70;62.80;;;;;;5033579;28;20104;-66
2023/06/09 02:27:26;;;;;;;20.83;17.13;;;15.70;83.20;;;;;;5033577;28;20033;-66
2023/06/09 02:29:52;;;;;;;22.85;17.92;;;15.70;90.30;;;;;;5033390;28;20037;-67
2023/06/09 02:32:17;;;;;;;19.20;17.08;;;15.80;91.60;;;;;;5033422;28;20026;-66
2023/06/09 02:34:45;;;;;;;22.02;17.15;;;15.80;85.90;;;;;;5033632;28;20029;-66
2023/06/09 02:37:10;;;;;;;22.40;17.38;;;15.90;75.70;;;;;;5033774;28;20434;-67
2023/06/09 02:39:36;;;;;;;20.58;17.45;;;15.80;71.40;;;;;;5033540;28;20021;-66
2023/06/09 02:42:02;;;;;;;20.77;16.38;;;15.90;65.20;;;;;;5033414;28;20021;-67
2023/06/09 02:44:31;;;;;;;18.52;15.93;;;15.80;64.30;;;;;;5033543;28;20450;-67
2023/06/09 02:46:57;;;;;;;20.33;17.55;;;15.70;65.00;;;;;;5032070;28;20048;-66
2023/06/09 02:49:23;;;;;;;16.75;14.77;;;15.60;77.10;;;;;;5033585;28;20495;-66
2023/06/09 02:51:48;;;;;;;18.75;16.77;;;15.60;80.00;;;;;;5033413;28;20026;-66
2023/06/09 02:54:14;;;;;;;17.17;15.48;;;15.60;88.90;;;;;;5033195;28;20033;-66
2023/06/09 02:56:39;;;;;;;20.73;17.70;;;15.50;90.90;;;;;;5032990;28;20124;-66
2023/06/09 02:59:05;;;;;;;22.70;18.20;;;15.50;94.20;;;;;;5032885;28;20053;-66
2023/06/09 03:01:34;;;;;;;22.35;19.05;;;15.40;99.90;;;;;;5033439;28;20030;-66
2023/06/09 03:04:02;;;;;;;22.80;18.42;;;15.40;99.90;;;;;;5033180;28;20100;-66
2023/06/09 03:06:29;;;;;;;23.95;18.33;;;15.40;99.90;;;;;;5033211;28;20502;-66
2023/06/09 03:08:54;;;;;;;24.90;19.92;;;15.40;99.90;;;;;;5033244;28;20073;-66
2023/06/09 03:11:20;;;;;;;21.33;19.05;;;15.30;99.90;;;;;;5033185;28;20544;-66
2023/06/09 03:13:46;;;;;;;22.00;19.70;;;15.30;99.90;;;;;;5033248;28;20395;-66
2023/06/09 03:16:11;;;;;;;23.50;18.67;;;15.30;99.90;;;;;;5033250;28;20076;-66
2023/06/09 03:18:37;;;;;;;24.83;18.95;;;15.30;99.90;;;;;;5033265;28;20506;-66
2023/06/09 03:21:04;;;;;;;20.13;17.42;;;15.30;99.90;;;;;;5032792;28;20514;-66
2023/06/09 03:23:32;;;;;;;20.50;18.17;;;15.30;99.90;;;;;;5032939;28;20022;-67
2023/06/09 03:25:58;;;;;;;20.80;17.35;;;15.30;99.90;;;;;;5031885;28;20032;-66
2023/06/09 03:28:23;;;;;;;23.67;17.90;;;15.30;99.90;;;;;;5032981;28;20100;-67
2023/06/09 03:30:49;;;;;;;21.48;19.20;;;15.20;99.90;;;;;;5032957;28;20483;-66
2023/06/09 03:33:18;;;;;;;25.00;20.10;;;15.20;99.90;;;;;;5032948;28;20030;-66
2023/06/09 03:35:44;;;;;;;24.75;19.50;;;15.20;99.90;;;;;;5032900;28;20084;-66
2023/06/09 03:38:09;;;;;;;25.98;19.30;;;15.20;99.90;;;;;;5032885;28;20029;-66
2023/06/09 03:40:36;;;;;;;19.83;17.75;;;15.30;99.90;;;;;;5032715;28;20532;-66
2023/06/09 03:43:02;;;;;;;19.48;17.48;;;15.30;99.90;;;;;;5036176;28;20022;-66
2023/06/09 03:45:27;;;;;;;19.38;17.17;;;15.40;99.90;;;;;;5036597;28;20022;-67
2023/06/09 03:47:53;;;;;;;24.70;18.13;;;15.50;99.90;;;;;;5036343;28;20113;-67
2023/06/09 03:50:18;;;;;;;25.27;19.23;;;15.40;99.90;;;;;;5036678;28;20040;-67
2023/06/09 03:52:44;;;;;;;22.10;18.65;;;15.50;99.90;;;;;;5036611;28;20100;-67
2023/06/09 03:55:10;;;;;;;20.20;18.08;;;15.60;99.90;;;;;;5036500;28;20132;-67
2023/06/09 03:57:35;;;;;;;25.23;18.15;;;15.60;97.10;;;;;;5036183;28;20025;-67
2023/06/09 04:00:01;;;;;;;18.40;16.40;;;15.70;98.10;;;;;;5036154;28;20060;-67
2023/06/09 04:02:26;;;;;;;22.02;17.95;;;15.70;97.30;;;;;;5036589;28;20037;-67
2023/06/09 04:04:52;;;;;;;17.73;15.93;;;15.70;97.50;;;;;;5036451;28;20025;-67
2023/06/09 04:07:17;;;;;;;18.77;15.95;;;15.70;96.10;;;;;;5036440;28;20069;-67
2023/06/09 04:09:43;;;;;;;19.00;17.00;;;15.80;94.70;;;;;;5036281;28;20416;-67
2023/06/09 04:12:09;;;;;;;19.33;17.10;;;15.90;92.90;;;;;;5036254;28;20029;-67
2023/06/09 04:14:35;;;;;;;20.63;16.63;;;15.90;91.40;;;;;;5036018;28;20462;-67
2023/06/09 04:17:02;;;;;;;21.90;18.23;;;16.00;86.10;;;;;;5036091;28;20034;-67
2023/06/09 04:19:27;;;;;;;18.48;16.52;;;16.10;75.90;;;;;;5035966;28;20057;-67
2023/06/09 04:21:53;;;;;;;18.40;15.82;;;16.10;79.70;;;;;;5036080;28;20505;-67
2023/06/09 04:24:19;;;;;;;23.75;16.33;;;16.20;75.30;;;;;;5034881;28;20032;-67
2023/06/09 04:26:47;;;;;;;21.15;16.35;;;16.30;73.30;;;;;;5035697;28;20498;-67
2023/06/09 04:29:13;;;;;;;19.23;16.98;;;16.40;65.00;;;;;;5035267;28;20036;-67
2023/06/09 04:31:42;;;;;;;23.63;17.15;;;16.60;60.50;;;;;;5035813;28;20033;-67
2023/06/09 04:34:10;;;;;;;20.40;17.00;;;16.70;58.50;;;;;;5035764;28;20030;-67
2023/06/09 04:36:38;;;;;;;18.70;16.52;;;17.00;60.90;;;;;;5035533;28;20479;-67
2023/06/09 04:39:05;;;;;;;19.38;17.33;;;17.70;32.10;;;;;;5035593;28;20033;-67
2023/06/09 04:41:31;;;;;;;16.10;14.40;;;19.00;1.00;;;;;;5035517;28;20032;-67
2023/06/09 04:44:03;;;;;;;17.50;13.88;;;20.30;1.00;;;;;;5035706;28;20028;-67
2023/06/09 04:46:31;;;;;;;18.73;14.35;;;21.10;99.90;;;;;;5035791;28;20032;-67
2023/06/09 04:48:57;;;;;;;15.35;13.75;;;22.00;38.40;;;;;;5035705;28;20476;-67
2023/06/09 04:51:24;;;;;;;16.25;13.57;;;22.60;99.90;;;;;;5035302;28;20022;-67
2023/06/09 04:53:49;;;;;;;16.27;12.70;;;22.90;99.90;;;;;;5035277;28;20018;-67
2023/06/09 04:56:16;;;;;;;14.60;13.10;;;23.50;1.00;;;;;;5035501;28;20055;-68
2023/06/09 04:58:42;;;;;;;14.00;12.50;;;23.80;1.00;;;;;;5035139;28;20037;-68
2023/06/09 05:01:07;;;;;;;16.70;13.40;;;24.10;1.00;;;;;;5035254;28;20537;-67
2023/06/09 05:03:33;;;;;;;17.02;14.18;;;23.80;99.90;;;;;;5035212;28;20057;-67
2023/06/09 05:05:59;;;;;;;15.65;13.35;;;24.20;99.90;;;;;;5035157;28;20021;-68
2023/06/09 05:08:25;;;;;;;15.73;13.43;;;24.70;99.90;;;;;;5035088;28;20104;-68
2023/06/09 05:10:52;;;;;;;14.15;12.68;;;24.20;19.90;;;;;;5035224;28;20033;-68
2023/06/09 05:13:18;;;;;;;13.88;12.52;;;24.10;99.90;;;;;;5034995;28;20037;-68
2023/06/09 05:15:43;;;;;;;13.98;12.52;;;24.40;25.20;;;;;;5035222;28;20104;-67
2023/06/09 05:18:09;;;;;;;12.93;11.65;;;25.10;1.00;;;;;;5035180;28;20029;-68
2023/06/09 05:20:35;;;;;;;12.43;11.00;;;25.50;99.90;;;;;;5034820;28;20403;-68
2023/06/09 05:23:02;;;;;;;12.50;10.50;;;25.70;99.90;;;;;;5034836;28;20422;-68
2023/06/09 05:25:28;;;;;;;13.13;11.60;;;26.30;99.90;;;;;;5035074;28;20025;-68
2023/06/09 05:27:53;;;;;;;12.48;11.15;;;26.20;99.90;;;;;;5034801;28;20028;-68
2023/06/09 05:30:19;;;;;;;13.35;11.05;;;25.10;99.90;;;;;;5034992;28;20112;-68
2023/06/09 05:32:45;;;;;;;11.52;10.43;;;25.80;99.90;;;;;;5034946;28;20084;-67
2023/06/09 05:35:10;;;;;;;11.80;10.70;;;25.50;99.90;;;;;;5034763;28;20394;-67
2023/06/09 05:37:55;;;;;;;11.93;10.25;;;26.30;99.90;;;;;;5034723;28;20033;-67
2023/06/09 05:40:20;;;;;;;11.60;10.25;;;26.20;99.90;;;;;;5034402;28;20399;-67
2023/06/09 05:42:46;;;;;;;11.57;10.43;;;26.50;99.90;;;;;;5034368;28;20030;-67
2023/06/09 05:45:12;;;;;;;10.27;9.38;;;25.40;99.90;;;;;;5034362;28;20155;-67
2023/06/09 05:47:37;;;;;;;11.50;9.02;;;26.60;99.90;;;;;;5034143;28;20021;-67
2023/06/09 05:50:03;;;;;;;10.00;9.00;;;26.90;99.90;;;;;;5034303;28;20037;-67
2023/06/09 05:52:29;;;;;;;9.77;8.85;;;27.30;99.90;;;;;;5034351;28;20091;-67
2023/06/09 05:54:55;;;;;;;10.23;9.32;;;27.20;54.90;;;;;;5034268;28;20112;-66
2023/06/09 05:57:20;;;;;;;9.25;8.45;;;26.80;27.30;;;;;;5034259;28;20025;-67
2023/06/09 05:59:46;;;;;;;9.68;8.70;;;27.40;20.30;;;;;;5034035;28;20128;-67
2023/06/09 06:02:13;;;;;;;9.55;8.57;;;27.40;5.50;;;;;;5034010;28;20082;-67
2023/06/09 06:04:39;;;;;;;10.25;8.68;;;28.70;1.00;;;;;;5033364;28;20026;-66
2023/06/09 06:07:05;;;;;;;9.88;8.48;;;28.10;1.00;;;;;;5034001;28;20025;-67
2023/06/09 06:09:30;;;;;;;7.82;7.22;;;28.50;1.00;;;;;;5034002;28;20032;-67
2023/06/09 06:11:56;;;;;;;10.43;8.23;;;29.00;1.00;;;;;;5033862;28;20059;-67
2023/06/09 06:14:21;;;;;;;9.10;8.20;;;29.60;1.00;;;;;;5033715;28;20112;-67
2023/06/09 06:16:47;;;;;;;9.88;7.85;;;29.80;36.40;;;;;;5033804;28;20029;-67
2023/06/09 06:19:13;;;;;;;8.10;7.28;;;29.10;1.00;;;;;;5032639;28;20380;-67
2023/06/09 06:21:42;;;;;;;8.55;7.63;;;29.20;1.00;;;;;;5033980;28;20025;-67
2023/06/09 06:24:08;;;;;;;7.13;6.53;;;29.70;99.90;;;;;;5033847;28;20113;-66
2023/06/09 06:26:34;;;;;;;7.93;7.07;;;29.10;99.90;;;;;;5033846;28;20144;-67
2023/06/09 06:29:00;;;;;;;7.43;6.20;;;29.10;99.90;;;;;;5033777;28;20025;-67
2023/06/09 06:31:28;;;;;;;7.90;7.20;;;30.00;1.00;;;;;;5033539;28;20060;-67
2023/06/09 06:33:53;;;;;;;9.77;6.63;;;30.20;99.90;;;;;;5033415;28;20395;-67
2023/06/09 06:36:21;;;;;;;7.07;6.47;;;30.70;1.00;;;;;;5033532;28;20022;-66
2023/06/09 06:38:47;;;;;;;9.23;7.07;;;30.10;1.00;;;;;;5033609;28;20068;-67
2023/06/09 06:41:12;;;;;;;7.40;6.70;;;29.90;1.00;;;;;;5033261;28;20029;-67
2023/06/09 06:43:38;;;;;;;7.60;6.45;;;30.20;99.90;;;;;;5033132;28;20030;-67
2023/06/09 06:46:05;;;;;;;6.95;6.35;;;30.10;99.90;;;;;;5033654;28;20029;-67
2023/06/09 06:48:30;;;;;;;7.13;6.15;;;30.90;99.90;;;;;;5033580;28;20026;-66
2023/06/09 06:50:56;;;;;;;6.43;5.88;;;31.40;99.90;;;;;;5033363;28;20079;-67
2023/06/09 06:53:21;;;;;;;9.10;6.70;;;31.10;99.90;;;;;;5033505;28;20037;-67
2023/06/09 06:55:47;;;;;;;7.63;6.10;;;30.80;99.90;;;;;;5033194;28;20032;-67
2023/06/09 06:58:12;;;;;;;6.47;5.88;;;31.10;99.90;;;;;;5033048;28;20061;-67
2023/06/09 07:00:38;;;;;;;7.05;5.95;;;30.90;99.90;;;;;;5033138;28;20034;-67
2023/06/09 07:03:04;;;;;;;7.13;6.40;;;31.30;99.90;;;;;;5033154;28;20072;-67
2023/06/09 07:05:29;;;;;;;7.00;6.20;;;31.90;99.90;;;;;;5033171;28;20021;-67
2023/06/09 07:07:55;;;;;;;8.30;6.03;;;31.60;7.80;;;;;;5033287;28;20026;-67
2023/06/09 07:10:20;;;;;;;8.57;6.38;;;32.00;1.50;;;;;;5033339;28;20034;-67
2023/06/09 07:12:46;;;;;;;9.63;6.70;;;32.30;1.00;;;;;;5033329;28;20025;-67
2023/06/09 07:15:11;;;;;;;7.10;6.40;;;31.70;1.00;;;;;;5033643;28;20038;-67
2023/06/09 07:17:37;;;;;;;7.22;6.53;;;31.60;1.00;;;;;;5037111;28;20391;-68
2023/06/09 07:20:03;;;;;;;6.47;5.90;;;31.40;1.00;;;;;;5037085;28;20231;-67
2023/06/09 07:22:29;;;;;;;7.10;6.40;;;32.10;1.00;;;;;;5037278;28;20467;-67
2023/06/09 07:24:54;;;;;;;9.48;6.05;;;32.30;99.90;;;;;;5036968;28;20020;-67
2023/06/09 07:27:20;;;;;;;5.93;5.43;;;32.30;1.00;;;;;;5037153;28;20105;-67
2023/06/09 07:29:46;;;;;;;8.13;6.43;;;32.50;1.00;;;;;;5037057;28;20029;-66
2023/06/09 07:32:12;;;;;;;7.00;6.40;;;32.00;53.10;;;;;;5036910;28;20030;-66
2023/06/09 07:34:38;;;;;;;10.23;6.65;;;32.30;99.90;;;;;;5036680;28;20029;-66
2023/06/09 07:37:04;;;;;;;7.03;6.22;;;32.10;1.00;;;;;;5036810;28;20025;-66
2023/06/09 07:39:30;;;;;;;7.80;6.30;;;31.20;1.00;;;;;;5036958;28;20021;-66
2023/06/09 07:41:56;;;;;;;7.45;6.43;;;31.70;99.90;;;;;;5036917;28;20041;-66
2023/06/09 07:44:22;;;;;;;8.30;6.60;;;31.10;1.00;;;;;;5036864;28;20439;-66
2023/06/09 07:46:47;;;;;;;9.65;7.22;;;31.90;1.00;;;;;;5036741;28;20447;-67
2023/06/09 07:49:14;;;;;;;9.82;6.55;;;31.60;1.00;;;;;;5036739;28;20033;-67
2023/06/09 07:51:42;;;;;;;7.60;6.90;;;31.20;99.90;;;;;;5036544;28;20025;-67
2023/06/09 07:54:07;;;;;;;6.97;6.28;;;31.80;1.00;;;;;;5036717;28;20475;-67
2023/06/09 07:56:33;;;;;;;6.95;6.25;;;32.50;1.00;;;;;;5036488;28;20033;-67
2023/06/09 07:58:59;;;;;;;8.30;6.00;;;32.60;1.00;;;;;;5036245;28;20518;-68
2023/06/09 08:01:26;;;;;;;6.63;5.97;;;32.20;99.90;;;;;;5036577;28;20079;-68
2023/06/09 08:03:51;;;;;;;6.03;5.47;;;32.30;99.90;;;;;;5036117;28;20495;-68
2023/06/09 08:06:17;;;;;;;8.85;6.05;;;32.70;99.90;;;;;;5036628;28;20029;-68
2023/06/09 08:08:43;;;;;;;7.28;6.57;;;31.80;46.90;;;;;;5036414;28;20033;-68
2023/06/09 08:11:09;;;;;;;8.02;7.03;;;31.50;99.90;;;;;;5036390;28;20036;-68
2023/06/09 08:13:35;;;;;;;7.30;6.70;;;31.30;99.90;;;;;;5035158;28;20147;-69
2023/06/09 08:16:01;;;;;;;7.75;6.63;;;31.30;99.90;;;;;;5036347;28;20480;-67
2023/06/09 08:18:26;;;;;;;6.95;6.25;;;31.30;99.90;;;;;;5036296;28;20044;-68
2023/06/09 08:20:52;;;;;;;8.30;6.60;;;31.70;99.90;;;;;;5035969;28;20080;-68
2023/06/09 08:23:20;;;;;;;7.90;6.63;;;32.50;48.80;;;;;;5036022;28;20030;-68
2023/06/09 08:25:46;;;;;;;7.45;6.75;;;32.80;1.00;;;;;;5036035;28;20025;-68
2023/06/09 08:28:12;;;;;;;6.90;6.22;;;32.70;1.00;;;;;;5035140;28;20022;-68
2023/06/09 08:30:37;;;;;;;7.43;6.38;;;32.70;99.90;;;;;;5035983;28;20069;-68
2023/06/09 08:33:03;;;;;;;7.07;6.38;;;32.90;99.90;;;;;;5035922;28;20037;-67
2023/06/09 08:35:31;;;;;;;10.27;6.88;;;33.20;99.90;;;;;;5035441;28;20159;-68
2023/06/09 08:37:57;;;;;;;8.13;7.10;;;32.80;1.00;;;;;;5035697;28;20068;-68
2023/06/09 08:40:26;;;;;;;8.80;6.68;;;33.10;1.00;;;;;;5035629;28;20061;-68
2023/06/09 08:42:58;;;;;;;8.95;6.35;;;33.00;99.90;;;;;;5035866;28;20037;-68
2023/06/09 08:45:25;;;;;;;7.67;6.87;;;32.30;1.00;;;;;;5035635;28;20108;-67
2023/06/09 08:47:54;;;;;;;8.00;6.30;;;32.30;99.90;;;;;;5035526;28;20029;-68
2023/06/09 08:50:20;;;;;;;7.00;6.35;;;32.30;99.90;;;;;;5035674;28;20032;-67
2023/06/09 08:52:47;;;;;;;8.40;6.72;;;32.20;1.00;;;;;;5035711;28;20167;-68
2023/06/09 08:55:14;;;;;;;7.45;6.45;;;32.70;99.90;;;;;;5035535;28;20037;-68
2023/06/09 08:57:40;;;;;;;11.13;6.97;;;33.10;99.90;;;;;;5035572;28;20406;-68
2023/06/09 09:00:09;;;;;;;8.20;6.00;;;32.60;1.00;;;;;;5035036;28;20045;-68
2023/06/09 09:02:35;;;;;;;8.27;7.38;;;32.80;1.00;;;;;;5034072;28;20467;-68
2023/06/09 09:05:01;;;;;;;8.00;6.35;;;33.20;1.00;;;;;;5035119;28;20028;-68
2023/06/09 09:07:27;;;;;;;8.85;6.28;;;32.90;1.00;;;;;;5035094;28;20450;-68
2023/06/09 09:09:54;;;;;;;9.85;6.43;;;33.60;1.00;;;;;;5035408;28;20376;-68
2023/06/09 09:12:19;;;;;;;8.38;5.90;;;33.30;99.90;;;;;;5035171;28;20025;-68
2023/06/09 09:14:45;;;;;;;6.90;6.00;;;33.10;99.90;;;;;;5034980;28;20113;-68
2023/06/09 09:17:12;;;;;;;7.93;5.97;;;33.40;99.90;;;;;;5035109;28;20033;-69
2023/06/09 09:19:42;;;;;;;6.57;5.97;;;33.90;72.70;;;;;;5034849;28;20029;-68
2023/06/09 09:22:08;;;;;;;7.15;5.43;;;34.00;1.00;;;;;;5035039;28;20438;-69
2023/06/09 09:24:35;;;;;;;6.57;5.97;;;34.00;99.90;;;;;;5035041;28;20025;-68
2023/06/09 09:27:01;;;;;;;6.63;5.88;;;33.50;99.90;;;;;;5034999;28;20108;-69
2023/06/09 09:29:28;;;;;;;6.40;5.85;;;33.70;1.00;;;;;;5034917;28;20188;-68
2023/06/09 09:31:58;;;;;;;6.82;6.13;;;33.90;1.00;;;;;;5034771;28;20079;-68
2023/06/09 09:34:26;;;;;;;7.15;6.38;;;33.40;1.00;;;;;;5034724;28;20364;-68
2023/06/09 09:36:56;;;;;;;7.30;6.53;;;33.10;99.90;;;;;;5034678;28;20491;-68
2023/06/09 09:39:22;;;;;;;7.43;6.05;;;33.20;24.20;;;;;;5033568;28;20495;-68
2023/06/09 09:42:08;;;;;;;8.15;6.38;;;33.30;99.90;;;;;;5034690;28;20026;-68
2023/06/09 09:44:43;;;;;;;7.70;5.93;;;33.40;99.90;;;;;;5034410;28;20079;-68
2023/06/09 09:47:10;;;;;;;7.30;5.78;;;33.30;43.80;;;;;;5034230;28;20032;-67
2023/06/09 09:49:36;;;;;;;7.03;5.55;;;33.50;1.00;;;;;;5034330;28;20395;-68
2023/06/09 09:52:05;;;;;;;6.78;5.47;;;33.60;1.00;;;;;;5034039;28;20032;-68
2023/06/09 09:54:31;;;;;;;6.97;5.90;;;32.90;99.90;;;;;;5034444;28;20097;-68
2023/06/09 09:57:00;;;;;;;7.32;5.88;;;33.10;1.00;;;;;;5034151;28;20030;-67
2023/06/09 09:59:26;;;;;;;7.30;5.93;;;33.80;99.90;;;;;;5033668;28;20041;-68
2023/06/09 10:01:54;;;;;;;7.35;6.03;;;33.80;1.00;;;;;;5033976;28;20040;-68
2023/06/09 10:04:23;;;;;;;7.28;6.03;;;33.40;99.90;;;;;;5034204;28;20021;-68
2023/06/09 10:06:53;;;;;;;6.93;5.90;;;32.50;99.90;;;;;;5034087;28;20036;-68
2023/06/09 10:09:22;;;;;;;6.53;5.93;;;33.00;99.90;;;;;;5034278;28;20036;-68
2023/06/09 10:11:50;;;;;;;6.80;5.95;;;34.10;1.00;;;;;;5032690;28;20056;-68
2023/06/09 10:14:16;;;;;;;9.40;5.97;;;33.50;1.00;;;;;;5034003;28;20029;-68
2023/06/09 10:16:43;;;;;;;7.88;6.20;;;33.20;99.90;;;;;;5032641;28;20029;-68
2023/06/09 10:19:08;;;;;;;8.07;6.03;;;33.10;99.90;;;;;;5033857;28;20479;-68
2023/06/09 10:21:36;;;;;;;6.68;5.70;;;33.10;99.90;;;;;;5033761;28;20030;-67
2023/06/09 10:24:03;;;;;;;8.10;5.75;;;33.90;99.90;;;;;;5033902;28;20395;-68
2023/06/09 10:26:29;;;;;;;6.70;5.60;;;33.60;99.90;;;;;;5033546;28;20112;-68
2023/06/09 10:28:55;;;;;;;7.82;6.25;;;34.00;99.90;;;;;;5033636;28;20068;-67
2023/06/09 10:31:22;;;;;;;6.05;5.50;;;33.60;1.00;;;;;;5033909;28;20391;-68
2023/06/09 10:33:49;;;;;;;8.52;5.90;;;32.40;99.90;;;;;;5033671;28;20116;-68
2023/06/09 10:36:15;;;;;;;6.40;5.80;;;32.30;99.90;;;;;;5033538;28;20370;-68
2023/06/09 10:38:43;;;;;;;7.93;5.68;;;32.50;1.00;;;;;;5033574;28;20029;-68
2023/06/09 10:41:32;;;;;;;6.57;5.57;;;32.30;93.70;;;;;;5033329;28;20036;-67
2023/06/09 10:44:19;;;;;;;8.15;5.93;;;32.50;99.90;;;;;;5033400;28;20048;-68
2023/06/09 10:46:48;;;;;;;7.72;6.50;;;32.50;99.90;;;;;;5033239;28;20021;-68
2023/06/09 10:49:36;;;;;;;6.45;5.85;;;32.50;99.90;;;;;;5033313;28;20475;-68
2023/06/09 10:52:05;;;;;;;7.47;5.90;;;31.80;99.90;;;;;;5033142;28;20030;-68
2023/06/09 10:54:32;;;;;;;8.48;6.47;;;31.60;20.30;;;;;;5031985;28;20022;-67
2023/06/09 10:57:00;;;;;;;7.50;6.70;;;30.50;99.90;;;;;;5033458;28;20104;-68
2023/06/09 10:59:31;;;;;;;10.70;6.65;;;30.80;99.90;;;;;;5032854;28;20057;-67
2023/06/09 11:04:52;;;;;;;7.45;6.43;;;30.80;99.90;;;;;;5111268;27;20380;-69
2023/06/09 11:07:21;;;;;;;8.32;6.60;;;30.80;99.90;;;;;;5111268;28;20058;-69
2023/06/09 11:09:52;;;;;;;7.05;6.35;;;30.80;99.90;;;;;;5111093;28;20024;-66
2023/06/09 11:15:03;;;;;;;7.60;6.75;;;30.80;99.90;;;;;;5090620;27;20433;-68
2023/06/09 11:17:37;;;;;;;9.13;6.60;;;30.80;99.90;;;;;;5090506;28;20028;-68
2023/06/09 11:25:27;;;;;;;9.13;6.05;;;31.10;1.00;;;;;;5090826;28;20308;-69
2023/06/09 11:31:00;;;;;;;8.40;6.85;;;30.50;99.90;;;;;;5070402;28;20383;-69
2023/06/09 11:33:48;;;;;;;6.90;6.10;;;30.40;1.00;;;;;;5070319;28;20056;-69
2023/06/09 11:36:19;;;;;;;9.05;6.75;;;30.30;37.10;;;;;;5069172;28;20031;-69
2023/06/09 11:38:47;;;;;;;10.65;6.88;;;30.30;99.90;;;;;;5069320;28;20021;-69
2023/06/09 11:41:14;;;;;;;7.43;6.82;;;30.20;1.00;;;;;;5070544;28;20146;-69
2023/06/09 11:43:50;;;;;;;8.95;7.00;;;29.70;99.90;;;;;;5070326;28;20029;-66
2023/06/09 11:46:17;;;;;;;7.80;6.82;;;30.10;99.90;;;;;;5070522;28;20431;-67
2023/06/09 11:49:03;;;;;;;8.48;7.13;;;30.10;99.90;;;;;;5070294;28;20029;-69
2023/06/09 11:51:49;;;;;;;9.32;7.38;;;30.20;40.70;;;;;;5070262;28;20068;-69
2023/06/09 11:54:14;;;;;;;7.90;7.07;;;30.00;1.00;;;;;;5069916;28;20108;-69
2023/06/09 11:56:41;;;;;;;8.00;7.20;;;30.30;1.00;;;;;;5069996;28;20119;-70
2023/06/09 11:59:07;;;;;;;7.88;7.07;;;30.30;96.20;;;;;;5070055;28;20063;-66
2023/06/09 12:01:32;;;;;;;7.82;7.03;;;30.30;1.00;;;;;;5069953;28;20059;-66
2023/06/09 12:03:58;;;;;;;8.95;6.82;;;30.40;1.00;;;;;;5070038;28;20029;-69
2023/06/09 12:06:23;;;;;;;8.80;7.47;;;30.60;1.00;;;;;;5069804;28;20063;-69
2023/06/09 12:08:49;;;;;;;9.18;6.97;;;30.00;1.00;;;;;;5069774;28;20029;-69
2023/06/09 12:11:16;;;;;;;7.78;6.97;;;30.10;1.00;;;;;;5069920;28;20484;-69
2023/06/09 12:13:47;;;;;;;8.48;7.05;;;30.10;99.90;;;;;;5069562;28;20031;-69
2023/06/09 12:16:13;;;;;;;9.88;7.75;;;30.00;99.90;;;;;;5068560;28;20497;-69
2023/06/09 12:18:38;;;;;;;8.05;7.18;;;29.90;1.00;;;;;;5069590;28;20025;-68
2023/06/09 12:21:05;;;;;;;9.00;7.60;;;30.00;99.90;;;;;;5069619;28;20028;-69
2023/06/09 12:23:32;;;;;;;11.77;7.32;;;30.00;99.90;;;;;;5069619;28;20086;-69
2023/06/09 12:26:04;;;;;;;9.82;7.70;;;30.00;99.90;;;;;;5069561;28;20032;-69
2023/06/09 12:28:30;;;;;;;9.88;8.00;;;30.10;57.70;;;;;;5069190;28;20072;-68
2023/06/09 12:31:07;;;;;;;9.73;7.63;;;30.20;99.90;;;;;;5069275;28;20067;-69
2023/06/09 12:33:33;;;;;;;8.82;7.60;;;29.80;93.20;;;;;;5069124;28;20056;-67
2023/06/09 12:36:13;;;;;;;10.10;7.30;;;29.80;99.90;;;;;;5069115;28;20099;-67
2023/06/09 12:38:41;;;;;;;9.25;7.00;;;30.00;99.90;;;;;;5069100;28;20036;-68
2023/06/09 12:41:09;;;;;;;9.27;7.50;;;30.20;99.90;;;;;;5060387;28;20032;-67
2023/06/09 12:43:52;;;;;;;8.50;7.45;;;30.10;99.90;;;;;;5056170;28;20033;-68
2023/06/09 12:46:20;;;;;;;8.63;7.78;;;30.00;99.90;;;;;;5054626;28;20433;-68
2023/06/09 12:49:07;;;;;;;8.40;7.57;;;29.80;1.00;;;;;;5055710;28;20119;-67
2023/06/09 12:51:36;;;;;;;8.70;7.15;;;30.00;1.00;;;;;;5055692;28;20482;-67
2023/06/09 12:54:03;;;;;;;9.38;7.53;;;30.20;99.90;;;;;;5055877;28;20479;-67
2023/06/09 12:56:28;;;;;;;9.93;6.97;;;30.30;99.90;;;;;;5055719;28;20021;-67